西安 の空港の天気 - METARとTAF

西安咸陽国際空港 ( ZLXY / XIY ) - 中国 陝西省西安市
飛行場実況気象(Metar)
観測時間02/22 01:00 CST (02/21 17:00 UTC)
風向・風速南西 1m/s
視程2000m
天気現象もや
なし
気温-3℃
湿度93%
気圧1025hPa
METARZLXY 211700Z 22001MPS 2000 BR NSC M03/M04 Q1025 NOSIG
過去の天気等 Google飛行場航空写真 Wunderground天気予報

過去48時間のMETAR

飛行場予報(TAF)
発表時間: 2/21 23:12 CST (2/21 15:12 UTC)
予報対象時間: 22日2時 CST ~ 23日2時 CST
風向・風速西 5m/s
視程1400m
天気現象もや
なし
22日11時 CST ~ 22日12時 CST に徐々に
風向・風速東北東 3m/s
22日12時 CST ~ 22日13時 CST に徐々に
視程3000m
天気現象煙霧
22日4時 CST ~ 22日10時 CST に一時的に
視程700m
天気現象氷霧
TAF ZLXY 211512Z 2118/2218 26005MPS 1400 BR NSC TX10/2207Z TNM04/23Z
BECMG 2203/2204 06003MPS
BECMG 2204/2205 3000 HZ
TEMPO 2120/2202 0700 FZFG